Time;durP1;ratioP1;P1;durP2;ratioP2;P2;SDS_P1;SDS_P2;PMS_P1;PMS_P2;Temp;Humidity;BMP_temperature;BMP_pressure;BME280_temperature;BME280_humidity;BME280_pressure;Samples;Min_cycle;Max_cycle;Signal;HPM_P1;HPM_P2
2023/09/27 00:00:47;;;;;;;20.63;15.80;;;14.20;99.90;;;;;;5072167;28;20036;-90
2023/09/27 00:03:13;;;;;;;29.58;20.58;;;14.10;99.90;;;;;;5071849;28;20024;-90
2023/09/27 00:05:39;;;;;;;27.70;19.55;;;14.00;99.90;;;;;;5073635;28;20478;-89
2023/09/27 00:08:06;;;;;;;27.23;18.55;;;14.00;99.90;;;;;;5071662;28;20021;-89
2023/09/27 00:10:32;;;;;;;22.02;17.02;;;13.90;99.90;;;;;;5073365;28;20351;-89
2023/09/27 00:12:58;;;;;;;25.05;17.48;;;13.90;99.90;;;;;;5071326;28;20027;-90
2023/09/27 00:15:23;;;;;;;27.05;19.05;;;13.90;99.90;;;;;;5070878;28;20032;-89
2023/09/27 00:17:49;;;;;;;36.35;22.70;;;13.80;99.90;;;;;;5072551;28;20405;-89
2023/09/27 00:20:19;;;;;;;36.58;24.02;;;13.80;99.90;;;;;;5072172;28;20042;-89
2023/09/27 00:22:45;;;;;;;33.15;24.42;;;13.80;99.90;;;;;;5072293;28;20120;-89
2023/09/27 00:25:12;;;;;;;34.08;23.02;;;13.80;99.90;;;;;;5072140;28;20101;-91
2023/09/27 00:27:38;;;;;;;34.38;22.77;;;13.80;99.90;;;;;;5075678;28;20100;-89
2023/09/27 00:30:07;;;;;;;33.63;22.02;;;13.70;99.90;;;;;;5075679;28;20040;-90
2023/09/27 00:32:33;;;;;;;30.27;22.25;;;13.70;99.90;;;;;;5076685;28;20039;-90
2023/09/27 00:34:59;;;;;;;33.35;21.77;;;13.70;99.90;;;;;;5075689;28;20009;-90
2023/09/27 00:37:25;;;;;;;29.83;20.00;;;13.70;99.90;;;;;;5076712;28;20023;-91
2023/09/27 00:39:51;;;;;;;28.00;18.92;;;13.60;99.90;;;;;;5075999;28;20131;-90
2023/09/27 00:42:17;;;;;;;22.25;16.50;;;13.60;99.90;;;;;;5075409;28;20060;-90
2023/09/27 00:44:43;;;;;;;24.45;17.92;;;13.50;99.90;;;;;;5078653;28;20082;-89
2023/09/27 00:47:10;;;;;;;26.40;17.67;;;13.50;99.90;;;;;;5087717;28;20025;-85
2023/09/27 00:49:37;;;;;;;25.88;16.80;;;13.50;99.90;;;;;;5077143;28;20021;-81
2023/09/27 00:52:02;;;;;;;27.20;18.98;;;13.40;99.90;;;;;;5076864;28;20024;-81
2023/09/27 00:54:31;;;;;;;23.65;16.70;;;13.40;99.90;;;;;;5087347;28;20103;-81
2023/09/27 00:56:58;;;;;;;26.25;18.42;;;13.30;99.90;;;;;;5084590;28;20064;-82
2023/09/27 00:59:25;;;;;;;28.25;18.90;;;13.30;99.90;;;;;;5077958;28;20028;-91
2023/09/27 01:01:52;;;;;;;25.83;18.00;;;13.30;99.90;;;;;;5074199;28;20036;-91
2023/09/27 01:04:18;;;;;;;23.50;16.95;;;13.30;99.90;;;;;;5078324;28;20433;-83
2023/09/27 01:06:44;;;;;;;27.95;17.08;;;13.20;99.90;;;;;;5087498;28;20055;-91
2023/09/27 01:09:11;;;;;;;24.40;18.30;;;13.20;99.90;;;;;;5077504;28;20028;-81
2023/09/27 01:11:38;;;;;;;23.33;17.17;;;13.20;99.90;;;;;;5085401;28;20051;-82
2023/09/27 01:14:03;;;;;;;24.35;18.25;;;13.20;99.90;;;;;;5075515;28;20016;-91
2023/09/27 01:16:29;;;;;;;27.02;18.25;;;13.20;99.90;;;;;;5075276;28;20449;-90
2023/09/27 01:19:03;;;;;;;28.92;18.45;;;13.20;99.90;;;;;;5054133;28;20035;-82
2023/09/27 01:21:29;;;;;;;23.35;17.70;;;13.10;99.90;;;;;;5063664;28;20043;-90
2023/09/27 01:23:55;;;;;;;25.33;18.65;;;13.10;99.90;;;;;;5075510;28;20109;-82
2023/09/27 01:26:22;;;;;;;24.63;17.63;;;13.10;99.90;;;;;;5075339;28;20098;-82
2023/09/27 01:28:48;;;;;;;25.63;18.30;;;13.10;99.90;;;;;;5075356;28;20021;-90
2023/09/27 01:31:14;;;;;;;26.02;18.10;;;13.10;99.90;;;;;;5083241;28;20099;-90
2023/09/27 01:33:40;;;;;;;28.15;18.52;;;13.00;99.90;;;;;;5086146;28;20078;-81
2023/09/27 01:36:07;;;;;;;27.70;17.75;;;13.00;99.90;;;;;;5088502;28;20020;-91
2023/09/27 01:38:33;;;;;;;26.75;17.92;;;12.90;99.90;;;;;;5085648;28;20498;-82
2023/09/27 01:40:59;;;;;;;26.27;17.58;;;12.90;99.90;;;;;;5074673;28;20032;-91
2023/09/27 01:43:25;;;;;;;28.00;18.02;;;12.90;99.90;;;;;;5073949;28;20432;-81
2023/09/27 01:45:50;;;;;;;20.30;15.70;;;12.80;99.90;;;;;;5075806;28;20103;-92
2023/09/27 01:48:16;;;;;;;28.05;15.90;;;12.80;99.90;;;;;;5093577;28;20031;-92
2023/09/27 01:50:42;;;;;;;22.08;15.10;;;12.80;99.90;;;;;;5094746;28;20102;-81
2023/09/27 01:53:08;;;;;;;20.35;15.23;;;12.80;99.90;;;;;;5094507;28;20484;-81
2023/09/27 01:55:34;;;;;;;20.90;14.45;;;12.70;99.90;;;;;;5078681;28;20066;-81
2023/09/27 01:58:00;;;;;;;13.40;11.35;;;12.70;99.90;;;;;;5075006;28;20024;-81
2023/09/27 02:00:26;;;;;;;13.95;11.10;;;12.60;99.90;;;;;;5073937;28;20017;-81
2023/09/27 02:02:58;;;;;;;15.02;11.52;;;12.60;99.90;;;;;;5072771;28;20036;-91
2023/09/27 02:05:28;;;;;;;17.75;11.75;;;12.60;99.90;;;;;;5076326;28;20367;-82
2023/09/27 02:07:54;;;;;;;16.90;12.02;;;12.50;99.90;;;;;;5076963;28;20047;-82
2023/09/27 02:10:20;;;;;;;17.42;13.57;;;12.50;99.90;;;;;;5088407;28;20024;-81
2023/09/27 02:12:46;;;;;;;14.27;11.70;;;12.50;99.90;;;;;;5074455;28;20028;-82
2023/09/27 02:15:13;;;;;;;14.88;12.80;;;12.40;99.90;;;;;;5089184;28;20020;-81
2023/09/27 02:17:40;;;;;;;21.02;13.43;;;12.40;99.90;;;;;;5093198;28;20023;-91
2023/09/27 02:20:07;;;;;;;16.42;12.98;;;12.40;99.90;;;;;;5091256;28;20024;-90
2023/09/27 02:22:34;;;;;;;18.30;13.15;;;12.40;99.90;;;;;;5073754;28;20029;-82
2023/09/27 02:25:00;;;;;;;17.58;13.35;;;12.40;99.90;;;;;;5085670;28;20385;-82
2023/09/27 02:27:25;;;;;;;18.58;13.93;;;12.30;99.90;;;;;;5073138;28;20016;-90
2023/09/27 02:29:51;;;;;;;17.00;13.93;;;12.30;99.90;;;;;;5074606;28;20143;-89
2023/09/27 02:32:17;;;;;;;19.58;13.73;;;12.30;99.90;;;;;;5074324;28;20489;-91
2023/09/27 02:34:44;;;;;;;18.98;13.07;;;12.30;99.90;;;;;;5074572;28;20025;-91
2023/09/27 02:37:10;;;;;;;17.27;12.98;;;12.30;99.90;;;;;;5087703;28;20481;-90
2023/09/27 02:39:35;;;;;;;21.92;12.65;;;12.20;99.90;;;;;;5088134;28;20102;-91
2023/09/27 02:42:01;;;;;;;15.43;11.75;;;12.20;99.90;;;;;;5083375;28;20044;-91
2023/09/27 02:44:27;;;;;;;17.15;11.73;;;12.20;99.90;;;;;;5081711;28;20052;-91
2023/09/27 02:46:54;;;;;;;16.17;12.10;;;12.20;99.90;;;;;;5082686;28;20032;-91
2023/09/27 02:49:20;;;;;;;15.30;12.63;;;12.20;99.90;;;;;;5079522;28;20029;-92
2023/09/27 02:51:48;;;;;;;16.50;11.52;;;12.20;99.90;;;;;;5076787;28;20069;-91
2023/09/27 02:54:14;;;;;;;19.90;12.18;;;12.10;99.90;;;;;;5081012;28;20470;-92
2023/09/27 02:56:43;;;;;;;16.00;11.82;;;12.10;99.90;;;;;;5077442;28;20032;-92
2023/09/27 02:59:13;;;;;;;13.10;10.75;;;12.10;99.90;;;;;;5078806;28;20017;-91
2023/09/27 03:01:43;;;;;;;16.55;12.10;;;12.00;99.90;;;;;;5078184;28;20032;-91
2023/09/27 03:04:10;;;;;;;18.45;11.63;;;12.00;99.90;;;;;;5077641;28;20465;-90
2023/09/27 03:06:37;;;;;;;14.35;10.20;;;12.00;99.90;;;;;;5079581;28;20024;-90
2023/09/27 03:09:04;;;;;;;19.48;11.57;;;12.00;99.90;;;;;;5072742;28;20453;-91
2023/09/27 03:11:31;;;;;;;14.55;10.77;;;11.90;99.90;;;;;;5083126;28;20035;-91
2023/09/27 03:13:56;;;;;;;16.27;11.30;;;11.90;99.90;;;;;;5073299;28;20496;-92
2023/09/27 03:16:23;;;;;;;16.00;10.55;;;11.80;99.90;;;;;;5073242;28;20052;-91
2023/09/27 03:18:49;;;;;;;14.48;10.57;;;11.90;99.90;;;;;;5073232;28;20028;-90
2023/09/27 03:21:17;;;;;;;18.95;10.73;;;11.80;99.90;;;;;;5071562;28;20033;-90
2023/09/27 03:23:43;;;;;;;15.80;10.45;;;11.80;99.90;;;;;;5072926;28;20028;-90
2023/09/27 03:26:09;;;;;;;14.93;10.25;;;11.70;99.90;;;;;;5071808;28;20021;-92
2023/09/27 03:28:34;;;;;;;14.48;11.00;;;11.70;99.90;;;;;;5073627;28;20428;-91
2023/09/27 03:31:00;;;;;;;15.77;10.93;;;11.70;99.90;;;;;;5072044;28;20025;-91
2023/09/27 03:33:27;;;;;;;14.98;10.85;;;11.70;99.90;;;;;;5073530;28;20020;-91
2023/09/27 03:35:53;;;;;;;21.00;11.23;;;11.70;99.90;;;;;;5071648;28;20077;-91
2023/09/27 03:38:19;;;;;;;14.55;10.48;;;11.60;99.90;;;;;;5073111;28;20041;-91
2023/09/27 03:40:44;;;;;;;13.32;10.80;;;11.70;99.90;;;;;;5071704;28;20478;-92
2023/09/27 03:43:10;;;;;;;11.30;9.50;;;11.70;99.90;;;;;;5072336;28;20484;-89
2023/09/27 03:45:36;;;;;;;17.02;10.77;;;11.60;99.90;;;;;;5071337;28;20024;-89
2023/09/27 03:48:05;;;;;;;18.17;11.60;;;11.60;99.90;;;;;;5084578;28;20504;-89
2023/09/27 03:50:30;;;;;;;16.20;11.20;;;11.60;99.90;;;;;;5071247;28;20413;-90
2023/09/27 03:52:57;;;;;;;13.02;10.10;;;11.50;99.90;;;;;;5078406;28;20028;-91
2023/09/27 03:55:23;;;;;;;14.90;11.25;;;11.60;99.90;;;;;;5091362;28;20021;-90
2023/09/27 03:57:49;;;;;;;19.98;10.90;;;11.50;99.90;;;;;;5084577;28;20048;-91
2023/09/27 04:00:17;;;;;;;15.88;11.55;;;11.60;99.90;;;;;;5071439;28;20094;-91
2023/09/27 04:02:44;;;;;;;14.50;11.55;;;11.60;99.90;;;;;;5072566;28;20115;-89
2023/09/27 04:05:10;;;;;;;16.17;11.88;;;11.60;99.90;;;;;;5073739;28;20054;-91
2023/09/27 04:07:36;;;;;;;16.23;11.77;;;11.60;99.90;;;;;;5072726;28;20021;-91
2023/09/27 04:10:08;;;;;;;20.38;14.60;;;11.60;99.90;;;;;;5071403;28;20031;-90
2023/09/27 04:12:35;;;;;;;23.58;14.02;;;11.60;99.90;;;;;;5071452;28;20017;-80
2023/09/27 04:15:00;;;;;;;19.88;13.68;;;11.60;99.90;;;;;;5069565;28;20021;-80
2023/09/27 04:17:27;;;;;;;30.35;15.85;;;11.70;99.90;;;;;;5079264;28;20485;-80
2023/09/27 04:19:55;;;;;;;22.08;16.08;;;11.70;99.90;;;;;;5081890;28;20028;-81
2023/09/27 04:22:21;;;;;;;20.92;14.35;;;11.70;99.90;;;;;;5075849;28;20066;-81
2023/09/27 04:24:47;;;;;;;34.03;15.60;;;11.70;99.90;;;;;;5083852;28;20024;-81
2023/09/27 04:27:13;;;;;;;17.80;13.50;;;11.70;99.90;;;;;;5079264;28;20123;-80
2023/09/27 04:29:39;;;;;;;19.17;13.93;;;11.80;99.90;;;;;;5082249;28;20020;-81
2023/09/27 04:32:04;;;;;;;20.38;13.80;;;11.70;99.90;;;;;;5078091;28;20025;-81
2023/09/27 04:34:30;;;;;;;17.75;13.13;;;11.70;99.90;;;;;;5081750;28;20021;-80
2023/09/27 04:36:56;;;;;;;19.25;12.70;;;11.70;99.90;;;;;;5077400;28;20025;-81
2023/09/27 04:39:26;;;;;;;22.42;12.50;;;11.70;99.90;;;;;;5084442;28;20092;-81
2023/09/27 04:41:52;;;;;;;20.67;14.05;;;11.70;99.90;;;;;;5079386;28;20032;-81
2023/09/27 04:44:18;;;;;;;22.75;13.57;;;11.70;99.90;;;;;;5083884;28;20022;-81
2023/09/27 04:46:44;;;;;;;15.52;13.20;;;11.70;99.90;;;;;;5088340;28;20027;-80
2023/09/27 04:49:09;;;;;;;22.65;17.00;;;11.70;99.90;;;;;;5074154;28;20037;-80
2023/09/27 04:51:35;;;;;;;24.55;17.38;;;11.70;99.90;;;;;;5063330;28;20464;-80
2023/09/27 04:54:03;;;;;;;24.95;14.10;;;11.70;99.90;;;;;;5069542;28;20021;-80
2023/09/27 04:56:30;;;;;;;21.60;14.77;;;11.80;99.90;;;;;;5079012;28;20131;-80
2023/09/27 04:59:01;;;;;;;22.08;17.75;;;11.80;99.90;;;;;;5073911;28;20792;-80
2023/09/27 05:01:27;;;;;;;28.58;18.40;;;11.80;99.90;;;;;;5077471;28;20060;-81
2023/09/27 05:03:53;;;;;;;35.42;23.92;;;11.80;99.90;;;;;;5074740;28;20544;-81
2023/09/27 05:06:19;;;;;;;26.27;22.75;;;11.80;99.90;;;;;;5072348;28;20108;-81
2023/09/27 05:08:45;;;;;;;21.05;16.33;;;11.80;99.90;;;;;;5072157;28;20047;-80
2023/09/27 05:11:11;;;;;;;22.10;13.43;;;11.80;99.90;;;;;;5070398;28;20025;-81
2023/09/27 05:13:36;;;;;;;16.33;11.45;;;11.80;99.90;;;;;;5074667;28;20474;-81
2023/09/27 05:16:03;;;;;;;21.85;11.43;;;11.80;99.90;;;;;;5074277;28;20082;-81
2023/09/27 05:18:28;;;;;;;22.00;12.38;;;11.80;99.90;;;;;;5073826;28;20474;-81
2023/09/27 05:20:54;;;;;;;24.55;12.70;;;11.90;99.90;;;;;;5084231;28;20051;-80
2023/09/27 05:23:20;;;;;;;21.48;12.43;;;11.90;99.90;;;;;;5077878;28;20025;-79
2023/09/27 05:25:46;;;;;;;19.98;13.10;;;12.00;99.90;;;;;;5076498;28;20037;-79
2023/09/27 05:28:12;;;;;;;22.73;13.02;;;12.00;99.90;;;;;;5074937;28;20031;-79
2023/09/27 05:30:38;;;;;;;19.90;13.25;;;12.10;99.90;;;;;;5077441;28;20029;-78
2023/09/27 05:33:06;;;;;;;14.15;11.02;;;12.10;99.90;;;;;;5074062;28;20036;-79
2023/09/27 05:35:32;;;;;;;16.80;11.20;;;12.20;99.90;;;;;;5078650;28;20094;-79
2023/09/27 05:37:58;;;;;;;17.83;11.30;;;12.20;99.90;;;;;;5073841;28;20402;-79
2023/09/27 05:40:24;;;;;;;18.15;11.65;;;12.30;99.90;;;;;;5076912;28;20028;-79
2023/09/27 05:42:50;;;;;;;21.65;12.68;;;12.40;99.90;;;;;;5074643;28;20032;-80
2023/09/27 05:45:16;;;;;;;19.42;14.48;;;12.50;99.90;;;;;;5074646;28;20024;-80
2023/09/27 05:47:42;;;;;;;18.33;15.27;;;12.60;99.90;;;;;;5073198;28;20037;-80
2023/09/27 05:50:08;;;;;;;21.67;14.00;;;12.70;99.90;;;;;;5077659;28;20029;-80
2023/09/27 05:52:35;;;;;;;26.73;16.02;;;12.90;99.90;;;;;;5078929;28;20097;-79
2023/09/27 05:55:01;;;;;;;21.73;15.20;;;13.00;99.90;;;;;;5078679;28;20021;-79
2023/09/27 05:57:28;;;;;;;16.95;13.30;;;13.20;99.90;;;;;;5077997;28;20056;-79
2023/09/27 05:59:54;;;;;;;20.42;14.75;;;13.30;99.90;;;;;;5080510;28;20486;-78
2023/09/27 06:02:20;;;;;;;17.13;14.70;;;13.50;99.90;;;;;;5079408;28;20043;-78
2023/09/27 06:04:47;;;;;;;19.35;12.35;;;13.60;99.90;;;;;;5079067;28;20059;-79
2023/09/27 06:07:17;;;;;;;15.95;12.23;;;13.70;99.90;;;;;;5076556;28;20521;-79
2023/09/27 06:09:44;;;;;;;22.80;14.15;;;13.90;99.90;;;;;;5074697;28;20505;-78
2023/09/27 06:12:10;;;;;;;22.25;13.45;;;14.10;99.90;;;;;;5073337;28;20029;-81
2023/09/27 06:14:36;;;;;;;17.73;12.27;;;14.20;99.90;;;;;;5074382;28;20017;-81
2023/09/27 06:17:03;;;;;;;22.13;14.45;;;14.40;99.90;;;;;;5075753;28;20085;-80
2023/09/27 06:19:31;;;;;;;19.45;13.88;;;14.60;99.90;;;;;;5075258;28;20032;-80
2023/09/27 06:21:58;;;;;;;25.05;14.55;;;14.80;99.90;;;;;;5089178;28;20474;-80
2023/09/27 06:24:26;;;;;;;21.38;14.48;;;14.90;99.90;;;;;;5092458;28;20385;-81
2023/09/27 06:26:55;;;;;;;21.83;13.23;;;15.20;99.90;;;;;;5092125;28;20436;-80
2023/09/27 06:29:21;;;;;;;17.92;13.32;;;15.40;99.90;;;;;;5092362;28;20426;-79
2023/09/27 06:31:49;;;;;;;22.13;13.88;;;15.50;99.90;;;;;;5091109;28;20020;-79
2023/09/27 06:34:15;;;;;;;21.92;14.55;;;15.70;99.90;;;;;;5091791;28;20370;-79
2023/09/27 06:36:42;;;;;;;24.05;16.17;;;16.00;99.90;;;;;;5087296;28;20016;-79
2023/09/27 06:39:13;;;;;;;22.40;15.05;;;16.20;99.90;;;;;;5078583;28;20480;-80
2023/09/27 06:41:39;;;;;;;21.02;13.98;;;16.40;99.90;;;;;;5082175;28;20131;-79
2023/09/27 06:44:08;;;;;;;26.38;14.45;;;16.70;99.90;;;;;;5085344;28;20031;-79
2023/09/27 06:46:34;;;;;;;24.58;14.48;;;16.90;99.90;;;;;;5071461;28;20485;-80
2023/09/27 06:49:01;;;;;;;24.23;12.75;;;17.10;99.90;;;;;;5077048;28;20032;-79
2023/09/27 06:51:27;;;;;;;23.42;15.20;;;17.30;99.90;;;;;;5060504;28;20461;-79
2023/09/27 06:53:52;;;;;;;22.38;15.00;;;17.50;99.90;;;;;;5083727;28;20039;-79
2023/09/27 06:56:18;;;;;;;26.65;15.13;;;17.70;99.90;;;;;;5073114;28;20389;-88
2023/09/27 06:58:44;;;;;;;17.27;13.85;;;17.90;99.90;;;;;;5082141;28;20050;-86
2023/09/27 07:01:10;;;;;;;17.15;13.20;;;18.10;99.90;;;;;;5085828;28;20058;-87
2023/09/27 07:03:37;;;;;;;19.13;13.30;;;18.30;99.90;;;;;;5087887;28;20024;-88
2023/09/27 07:06:03;;;;;;;15.77;13.55;;;18.50;99.90;;;;;;5093661;28;20035;-86
2023/09/27 07:08:29;;;;;;;16.13;11.85;;;18.70;99.90;;;;;;5089358;28;20024;-89
2023/09/27 07:11:05;;;;;;;18.45;12.73;;;18.90;99.90;;;;;;5081003;28;20024;-89
2023/09/27 07:13:32;;;;;;;28.88;13.63;;;19.10;99.90;;;;;;5073488;28;20028;-90
2023/09/27 07:15:59;;;;;;;15.93;11.60;;;19.30;99.90;;;;;;5072041;28;20025;-88
2023/09/27 07:18:25;;;;;;;15.65;11.40;;;19.50;99.90;;;;;;5081600;28;20020;-77
2023/09/27 07:20:51;;;;;;;11.57;9.15;;;19.70;99.90;;;;;;5075791;28;20448;-77
2023/09/27 07:23:17;;;;;;;17.63;10.20;;;19.80;99.90;;;;;;5077194;28;20112;-87
2023/09/27 07:25:44;;;;;;;12.32;9.23;;;20.00;99.90;;;;;;5072423;28;20040;-87
2023/09/27 07:28:10;;;;;;;13.25;9.18;;;20.10;99.90;;;;;;5069767;28;20104;-87
2023/09/27 07:30:37;;;;;;;12.25;8.25;;;20.20;99.90;;;;;;5071245;28;20013;-77
2023/09/27 07:33:09;;;;;;;10.40;7.47;;;20.30;99.90;;;;;;5082141;28;20031;-77
2023/09/27 07:35:38;;;;;;;;;;;20.50;99.90;;;;;;5078432;28;20358;-88
2023/09/27 07:38:07;;;;;;;15.63;8.88;;;20.50;99.90;;;;;;5077024;28;20285;-77
2023/09/27 07:40:33;;;;;;;11.98;8.43;;;20.60;99.90;;;;;;5085519;28;20066;-78
2023/09/27 07:42:58;;;;;;;11.73;8.13;;;20.70;99.90;;;;;;5073008;28;20063;-77
2023/09/27 07:45:30;;;;;;;10.55;8.20;;;20.80;99.90;;;;;;5071640;28;20082;-88
2023/09/27 07:47:56;;;;;;;11.80;7.97;;;20.90;99.90;;;;;;5078239;28;20035;-87
2023/09/27 07:50:27;;;;;;;18.63;8.45;;;21.00;99.90;;;;;;5074871;28;20013;-78
2023/09/27 07:52:58;;;;;;;13.15;7.78;;;21.10;99.90;;;;;;5087816;28;20020;-87
2023/09/27 07:55:24;;;;;;;11.13;7.60;;;21.20;99.90;;;;;;5074259;28;20028;-87
2023/09/27 07:57:52;;;;;;;10.70;7.53;;;21.40;99.90;;;;;;5070590;28;20050;-88
2023/09/27 08:00:19;;;;;;;9.70;7.55;;;21.50;97.60;;;;;;5073386;28;20730;-78
2023/09/27 08:02:50;;;;;;;10.93;7.00;;;21.60;96.50;;;;;;5074743;28;20032;-78
2023/09/27 08:05:16;;;;;;;9.15;7.13;;;21.60;87.60;;;;;;5071932;28;20027;-89
2023/09/27 08:07:44;;;;;;;8.85;7.03;;;21.70;85.60;;;;;;5082735;28;20017;-88
2023/09/27 08:10:10;;;;;;;12.48;7.25;;;21.80;83.00;;;;;;5083051;28;20097;-88
2023/09/27 08:12:38;;;;;;;8.38;6.15;;;21.90;83.70;;;;;;5089560;28;20028;-77
2023/09/27 08:15:05;;;;;;;12.75;7.35;;;22.00;78.40;;;;;;5089317;28;20016;-77
2023/09/27 08:17:32;;;;;;;9.00;6.53;;;22.10;76.20;;;;;;5070018;28;20103;-77
2023/09/27 08:19:58;;;;;;;7.57;6.88;;;22.20;74.40;;;;;;5069011;28;20020;-78
2023/09/27 08:22:24;;;;;;;10.98;6.93;;;22.40;74.20;;;;;;5069178;28;20029;-78
2023/09/27 08:24:50;;;;;;;12.90;7.03;;;22.40;73.10;;;;;;5070520;28;20052;-78
2023/09/27 08:27:17;;;;;;;10.50;6.47;;;22.50;71.90;;;;;;5071102;28;20017;-88
2023/09/27 08:29:43;;;;;;;10.23;5.85;;;22.60;71.10;;;;;;5074559;28;20033;-88
2023/09/27 08:32:08;;;;;;;8.40;5.82;;;22.70;67.60;;;;;;5090140;28;20054;-87
2023/09/27 08:34:35;;;;;;;13.38;6.65;;;22.80;68.10;;;;;;5094071;28;20020;-78
2023/09/27 08:37:01;;;;;;;8.57;6.18;;;22.90;67.40;;;;;;5084354;28;20354;-88
2023/09/27 08:39:27;;;;;;;11.13;6.57;;;23.00;68.70;;;;;;5083216;28;20055;-88
2023/09/27 08:41:57;;;;;;;8.85;6.93;;;23.10;69.20;;;;;;5088028;28;20035;-88
2023/09/27 08:44:23;;;;;;;9.43;6.18;;;23.20;69.70;;;;;;5084781;28;20370;-78
2023/09/27 08:46:50;;;;;;;7.60;5.93;;;23.30;68.50;;;;;;5091633;28;20024;-79
2023/09/27 08:49:18;;;;;;;10.02;6.30;;;23.30;68.10;;;;;;5090542;28;20031;-88
2023/09/27 08:51:46;;;;;;;7.63;5.80;;;23.50;70.20;;;;;;5077784;28;20024;-78
2023/09/27 08:54:16;;;;;;;9.13;6.20;;;23.50;70.60;;;;;;5075714;28;20076;-79
2023/09/27 08:56:50;;;;;;;8.82;5.82;;;23.60;67.10;;;;;;5086900;28;20020;-78
2023/09/27 08:59:18;;;;;;;10.98;6.78;;;23.70;67.00;;;;;;5079124;28;20040;-88
2023/09/27 09:01:45;;;;;;;8.43;5.15;;;23.80;69.10;;;;;;5080759;28;20082;-88
2023/09/27 09:04:11;;;;;;;10.73;5.90;;;23.90;67.80;;;;;;5085204;28;20099;-88
2023/09/27 09:06:37;;;;;;;7.07;5.88;;;24.00;67.90;;;;;;5079489;28;20038;-78
2023/09/27 09:09:11;;;;;;;5.90;4.95;;;24.10;67.60;;;;;;5079484;28;20103;-88
2023/09/27 09:11:54;;;;;;;6.57;5.43;;;24.10;68.30;;;;;;5095936;28;20030;-78
2023/09/27 09:14:43;;;;;;;8.32;5.45;;;24.10;65.50;;;;;;5094146;28;20050;-87
2023/09/27 09:17:10;;;;;;;9.70;6.07;;;24.20;62.20;;;;;;5076947;28;20008;-78
2023/09/27 09:19:38;;;;;;;8.88;6.00;;;24.20;61.60;;;;;;5079904;28;20019;-87
2023/09/27 09:22:08;;;;;;;5.93;5.32;;;24.30;61.40;;;;;;5087353;28;20024;-78
2023/09/27 09:24:45;;;;;;;12.23;6.00;;;24.30;63.30;;;;;;5086746;28;20013;-78
2023/09/27 09:27:14;;;;;;;8.43;5.40;;;24.30;61.10;;;;;;5071724;28;20016;-78
2023/09/27 09:29:43;;;;;;;9.70;5.53;;;24.40;60.40;;;;;;5083343;28;20398;-87
2023/09/27 09:32:09;;;;;;;6.32;4.95;;;24.50;60.00;;;;;;5079646;28;20047;-88
2023/09/27 09:34:45;;;;;;;9.45;5.13;;;24.50;58.80;;;;;;5077872;28;20025;-78
2023/09/27 09:37:19;;;;;;;10.25;5.40;;;24.50;58.90;;;;;;5081749;28;20020;-78
2023/09/27 09:39:46;;;;;;;8.52;5.05;;;24.60;59.50;;;;;;5078347;28;20043;-78
2023/09/27 09:42:14;;;;;;;11.73;5.85;;;24.60;57.20;;;;;;5081953;28;20036;-88
2023/09/27 09:44:40;;;;;;;10.90;5.88;;;24.60;58.00;;;;;;5088197;28;20012;-78
2023/09/27 09:47:11;;;;;;;10.90;5.70;;;24.60;59.10;;;;;;5090046;28;20024;-79
2023/09/27 09:49:37;;;;;;;8.90;5.03;;;24.60;55.50;;;;;;5085453;28;20023;-87
2023/09/27 09:52:06;;;;;;;7.32;4.78;;;24.60;54.40;;;;;;5085122;28;20016;-78
2023/09/27 09:54:49;;;;;;;8.80;5.13;;;24.60;54.80;;;;;;5089499;28;20508;-79
2023/09/27 09:57:15;;;;;;;7.65;5.00;;;24.70;54.60;;;;;;5083371;28;20084;-87
2023/09/27 10:00:16;;;;;;;93.55;17.33;;;24.70;55.20;;;;;;5089294;28;20016;-87
2023/09/27 10:02:51;;;;;;;9.07;5.18;;;24.70;54.50;;;;;;5088750;28;20123;-88
2023/09/27 10:05:23;;;;;;;8.00;4.75;;;24.90;56.60;;;;;;5084716;28;20039;-79
2023/09/27 10:07:50;;;;;;;5.80;4.60;;;24.90;55.80;;;;;;5082791;28;20074;-78
2023/09/27 10:10:20;;;;;;;8.48;5.65;;;25.00;54.60;;;;;;5086596;28;20020;-78
2023/09/27 10:12:49;;;;;;;7.35;5.28;;;24.90;53.60;;;;;;5088299;28;20025;-78
2023/09/27 10:15:22;;;;;;;7.93;5.20;;;24.90;54.90;;;;;;5095828;28;20054;-88
2023/09/27 10:17:47;;;;;;;7.07;5.50;;;24.80;54.90;;;;;;5078570;28;20449;-78
2023/09/27 10:20:19;;;;;;;11.18;5.68;;;24.90;54.60;;;;;;5081982;28;20055;-87
2023/09/27 10:22:46;;;;;;;;;;;24.90;54.30;;;;;;5082488;28;20025;-78
2023/09/27 10:25:24;;;;;;;9.75;5.50;;;24.90;54.80;;;;;;5082757;28;19904;-78
2023/09/27 10:28:02;;;;;;;8.85;5.28;;;24.90;54.00;;;;;;5077942;28;20024;-79
2023/09/27 10:30:50;;;;;;;8.38;5.72;;;25.00;54.90;;;;;;5078536;28;20016;-78
2023/09/27 10:33:16;;;;;;;9.40;5.47;;;25.00;54.40;;;;;;5078767;28;20020;-78
2023/09/27 10:36:01;;;;;;;7.72;5.38;;;25.00;55.10;;;;;;5072359;28;20024;-88
2023/09/27 10:38:49;;;;;;;11.35;6.78;;;25.00;56.40;;;;;;5076486;28;20036;-78
2023/09/27 10:41:33;;;;;;;10.25;5.75;;;25.00;56.90;;;;;;5076717;28;20033;-86
2023/09/27 10:44:00;;;;;;;9.77;6.43;;;25.00;56.60;;;;;;5065923;28;20013;-87
2023/09/27 10:46:26;;;;;;;12.48;6.00;;;25.00;57.50;;;;;;5076124;28;20024;-78
2023/09/27 10:48:56;;;;;;;7.03;6.28;;;25.00;56.20;;;;;;5074784;28;20023;-79
2023/09/27 10:51:25;;;;;;;9.77;6.05;;;25.00;56.20;;;;;;5077209;28;20097;-79
2023/09/27 10:53:51;;;;;;;9.75;6.15;;;25.10;56.20;;;;;;5077669;28;20020;-87
2023/09/27 10:56:17;;;;;;;14.23;6.28;;;25.10;57.90;;;;;;5080357;28;20493;-87
2023/09/27 10:58:49;;;;;;;7.20;5.90;;;25.10;58.30;;;;;;5091052;28;20061;-87
2023/09/27 11:01:20;;;;;;;13.65;5.65;;;25.20;57.70;;;;;;5089975;28;20028;-79
2023/09/27 11:03:45;;;;;;;10.85;6.40;;;25.20;55.20;;;;;;5085666;28;20062;-86
2023/09/27 11:06:13;;;;;;;7.97;5.63;;;25.20;54.80;;;;;;5091110;28;20019;-79
2023/09/27 11:08:40;;;;;;;8.27;5.63;;;25.20;54.70;;;;;;5074320;28;20409;-79
2023/09/27 11:11:11;;;;;;;8.38;6.05;;;25.20;55.60;;;;;;5092125;28;20031;-87
2023/09/27 11:13:43;;;;;;;8.90;5.97;;;25.20;54.60;;;;;;5088606;28;20028;-79
2023/09/27 11:16:10;;;;;;;9.23;6.20;;;25.20;54.70;;;;;;5074008;28;20021;-78
2023/09/27 11:18:46;;;;;;;8.90;6.70;;;25.20;53.80;;;;;;5080348;28;20099;-78
2023/09/27 11:21:13;;;;;;;7.63;5.70;;;25.20;54.40;;;;;;5082065;28;20028;-86
2023/09/27 11:24:01;;;;;;;10.95;5.22;;;25.30;55.70;;;;;;5084393;28;20069;-78
2023/09/27 11:26:31;;;;;;;10.75;5.50;;;25.40;56.30;;;;;;5085370;28;20024;-79
2023/09/27 11:29:06;;;;;;;6.47;5.13;;;25.50;53.40;;;;;;5068773;28;20123;-79
2023/09/27 11:31:32;;;;;;;10.55;5.18;;;25.50;53.90;;;;;;5070849;28;20107;-79
2023/09/27 11:34:18;;;;;;;7.18;4.97;;;25.50;51.50;;;;;;5072047;28;20020;-78
2023/09/27 11:36:44;;;;;;;8.32;4.72;;;25.50;51.30;;;;;;5072334;28;20032;-78
2023/09/27 11:39:13;;;;;;;9.15;5.03;;;25.50;50.50;;;;;;5072063;28;20555;-79
2023/09/27 11:41:39;;;;;;;10.30;8.30;;;25.50;50.80;;;;;;5071858;28;20044;-78
2023/09/27 11:44:17;;;;;;;11.02;4.20;;;25.60;51.30;;;;;;5069400;28;20050;-77
2023/09/27 11:46:43;;;;;;;5.80;4.20;;;25.60;50.60;;;;;;5072911;28;20146;-78
2023/09/27 11:49:10;;;;;;;7.85;4.43;;;25.70;50.90;;;;;;5072824;28;20382;-77
2023/09/27 11:51:37;;;;;;;7.45;4.45;;;25.70;50.80;;;;;;5074431;28;20024;-77
2023/09/27 11:54:04;;;;;;;9.52;4.15;;;25.70;49.50;;;;;;5074565;28;20040;-78
2023/09/27 11:56:31;;;;;;;7.70;4.32;;;25.60;47.80;;;;;;5076698;28;20080;-77
2023/09/27 11:58:56;;;;;;;7.90;4.78;;;25.60;48.20;;;;;;5077953;28;20072;-77
2023/09/27 12:01:23;;;;;;;9.52;4.53;;;25.60;48.90;;;;;;5077250;28;20056;-77
2023/09/27 12:03:49;;;;;;;11.07;4.55;;;25.60;48.00;;;;;;5071579;28;20033;-78
2023/09/27 12:06:14;;;;;;;10.65;4.60;;;25.60;47.30;;;;;;5075298;28;20105;-79
2023/09/27 12:08:40;;;;;;;6.53;4.72;;;25.60;47.70;;;;;;5073117;28;20020;-80
2023/09/27 12:11:07;;;;;;;6.75;4.25;;;25.60;48.00;;;;;;5069914;28;20032;-79
2023/09/27 12:13:35;;;;;;;5.72;4.53;;;25.50;47.60;;;;;;5069556;28;20494;-79
2023/09/27 12:16:01;;;;;;;7.13;4.80;;;25.50;48.20;;;;;;5071258;28;20115;-79
2023/09/27 12:18:26;;;;;;;5.35;4.30;;;25.50;47.80;;;;;;5069459;28;20103;-80
2023/09/27 12:20:52;;;;;;;7.97;4.80;;;25.50;47.20;;;;;;5069744;28;20083;-77
2023/09/27 12:23:18;;;;;;;8.02;4.20;;;25.60;48.30;;;;;;5073303;28;20102;-78
2023/09/27 12:25:44;;;;;;;8.25;4.43;;;25.60;48.80;;;;;;5063590;28;20064;-77
2023/09/27 12:28:11;;;;;;;12.70;4.95;;;25.60;49.10;;;;;;5076193;28;20056;-78
2023/09/27 12:30:37;;;;;;;10.25;4.70;;;25.70;49.30;;;;;;5075897;28;20474;-79
2023/09/27 12:33:03;;;;;;;9.40;4.30;;;25.60;48.70;;;;;;5075126;28;20024;-79
2023/09/27 12:35:28;;;;;;;9.32;5.30;;;25.60;48.60;;;;;;5072862;28;20024;-79